Time;durP1;ratioP1;P1;durP2;ratioP2;P2;SDS_P1;SDS_P2;PMS_P1;PMS_P2;Temp;Humidity;BMP_temperature;BMP_pressure;BME280_temperature;BME280_humidity;BME280_pressure;Samples;Min_cycle;Max_cycle;Signal;HPM_P1;HPM_P2
2021/03/19 00:00:07;;;;;;;16.10;10.23;;;1.60;99.90;;;;;;5056446;28;20468;-72
2021/03/19 00:02:38;;;;;;;14.40;11.50;;;1.60;99.90;;;;;;5056706;28;20464;-71
2021/03/19 00:05:09;;;;;;;16.43;11.73;;;1.60;99.90;;;;;;5055657;28;20461;-67
2021/03/19 00:07:42;;;;;;;19.70;13.73;;;1.50;99.90;;;;;;5057030;28;20438;-71
2021/03/19 00:10:11;;;;;;;15.90;12.77;;;1.50;99.90;;;;;;5055658;28;20446;-67
2021/03/19 00:12:40;;;;;;;17.10;11.13;;;1.50;99.90;;;;;;5039079;28;20563;-68
2021/03/19 00:15:09;;;;;;;16.10;11.90;;;1.50;99.90;;;;;;5055315;28;20442;-68
2021/03/19 00:17:39;;;;;;;11.30;9.52;;;1.60;99.90;;;;;;5046441;28;956804;-68
2021/03/19 00:20:25;;;;;;;17.03;11.20;;;1.60;99.90;;;;;;5056813;28;20442;-71
2021/03/19 00:22:54;;;;;;;18.70;11.90;;;1.60;99.90;;;;;;5033961;28;20467;-71
2021/03/19 00:25:22;;;;;;;15.20;11.50;;;1.50;99.90;;;;;;5057324;28;20740;-72
2021/03/19 00:27:50;;;;;;;12.20;9.63;;;1.40;99.90;;;;;;4971948;28;20485;-69
2021/03/19 00:30:18;;;;;;;14.77;11.57;;;1.40;99.90;;;;;;5056075;28;20590;-69
2021/03/19 00:32:47;;;;;;;14.57;11.90;;;1.40;99.90;;;;;;5056479;28;20522;-69
2021/03/19 00:35:15;;;;;;;14.20;10.73;;;1.30;99.90;;;;;;5087043;22;20492;-65
2021/03/19 00:37:43;;;;;;;20.43;11.43;;;1.40;99.90;;;;;;5096599;28;20794;-66
2021/03/19 00:40:12;;;;;;;14.10;10.77;;;1.30;99.90;;;;;;5078513;28;20435;-66
2021/03/19 00:42:41;;;;;;;13.27;10.17;;;1.30;99.90;;;;;;5096070;28;20471;-66
2021/03/19 00:45:11;;;;;;;17.40;12.20;;;1.40;99.90;;;;;;5095635;28;20506;-63
2021/03/19 00:47:39;;;;;;;15.67;12.00;;;1.30;99.90;;;;;;5095862;28;20440;-64
2021/03/19 00:50:12;;;;;;;17.07;11.37;;;1.30;99.90;;;;;;5095443;28;20437;-63
2021/03/19 00:52:40;;;;;;;15.37;11.57;;;1.30;99.90;;;;;;5095835;28;20615;-63
2021/03/19 00:55:10;;;;;;;16.50;11.73;;;1.30;99.90;;;;;;5095733;28;20432;-62
2021/03/19 00:57:38;;;;;;;13.70;10.83;;;1.40;99.90;;;;;;5095671;28;20438;-62
2021/03/19 01:00:08;;;;;;;14.50;11.30;;;1.60;99.90;;;;;;5095159;28;20519;-65
2021/03/19 01:02:35;;;;;;;17.33;11.00;;;1.60;99.90;;;;;;5094880;28;20464;-64
2021/03/19 01:05:06;;;;;;;12.47;10.47;;;1.50;99.90;;;;;;5095774;28;20525;-63
2021/03/19 01:07:35;;;;;;;12.80;10.77;;;1.60;99.90;;;;;;5094838;28;20527;-66
2021/03/19 01:10:06;;;;;;;14.90;10.73;;;1.70;99.90;;;;;;5095793;28;20452;-63
2021/03/19 01:12:34;;;;;;;12.37;10.13;;;1.50;99.90;;;;;;5096977;28;20485;-66
2021/03/19 01:15:04;;;;;;;14.57;10.97;;;1.40;99.90;;;;;;5097091;28;20924;-63
2021/03/19 01:17:32;;;;;;;14.60;11.60;;;1.30;99.90;;;;;;5097444;28;20763;-63
2021/03/19 01:20:00;;;;;;;15.50;12.23;;;1.20;99.90;;;;;;5095788;28;20989;-65
2021/03/19 01:25:25;;;;;;;13.07;10.90;;;1.20;99.90;;;;;;5098832;28;20448;-65
2021/03/19 01:27:55;;;;;;;12.73;10.50;;;1.20;99.90;;;;;;5095566;28;20470;-63
2021/03/19 01:30:24;;;;;;;16.50;12.00;;;1.10;99.90;;;;;;5094283;28;20820;-64
2021/03/19 01:32:52;;;;;;;17.00;11.37;;;1.10;99.90;;;;;;5094207;28;20479;-63
2021/03/19 01:35:23;;;;;;;17.80;12.70;;;1.10;99.90;;;;;;5093743;28;20565;-64
2021/03/19 01:37:52;;;;;;;18.87;11.87;;;1.00;99.90;;;;;;5094671;28;20947;-63
2021/03/19 01:40:23;;;;;;;17.97;12.67;;;1.00;99.90;;;;;;5094412;28;20522;-64
2021/03/19 01:42:54;;;;;;;17.60;12.07;;;1.00;99.90;;;;;;5093894;28;20999;-64
2021/03/19 01:45:52;;;;;;;18.77;13.50;;;1.00;99.90;;;;;;5093594;28;20425;-62
2021/03/19 01:48:56;;;;;;;24.83;14.03;;;1.00;99.90;;;;;;5093563;28;20433;-63
2021/03/19 01:52:11;;;;;;;20.00;14.20;;;1.00;99.90;;;;;;5093851;28;20436;-62
2021/03/19 01:55:15;;;;;;;19.97;16.00;;;1.00;99.90;;;;;;5093680;28;20967;-62
2021/03/19 01:58:20;;;;;;;21.47;13.90;;;1.00;99.90;;;;;;5094125;28;21007;-63
2021/03/19 02:01:25;;;;;;;24.23;14.13;;;1.00;99.90;;;;;;5093818;28;20506;-63
2021/03/19 02:04:32;;;;;;;20.80;14.97;;;1.00;99.90;;;;;;5093616;28;20794;-63
2021/03/19 02:07:36;;;;;;;22.23;16.00;;;0.90;99.90;;;;;;5093594;28;20428;-63
2021/03/19 02:10:41;;;;;;;24.57;17.10;;;0.90;99.90;;;;;;5064431;28;20451;-63
2021/03/19 02:13:46;;;;;;;23.47;14.30;;;0.90;99.90;;;;;;5094032;28;20432;-63
2021/03/19 02:16:51;;;;;;;20.23;14.20;;;1.00;99.90;;;;;;5093811;28;20482;-64
2021/03/19 02:19:56;;;;;;;19.20;13.93;;;1.00;99.90;;;;;;5093857;28;20437;-64
2021/03/19 02:23:01;;;;;;;22.60;15.23;;;1.00;99.90;;;;;;5094094;28;20456;-68
2021/03/19 02:26:07;;;;;;;23.13;15.20;;;1.00;99.90;;;;;;5094381;28;20440;-64
2021/03/19 02:29:12;;;;;;;23.13;14.53;;;1.00;99.90;;;;;;5094306;28;20522;-63
2021/03/19 02:31:57;;;;;;;18.90;14.00;;;1.00;99.90;;;;;;5094221;28;20428;-63
2021/03/19 02:34:28;;;;;;;22.30;15.17;;;0.90;99.90;;;;;;5093895;28;20528;-63
2021/03/19 02:36:57;;;;;;;22.67;15.67;;;0.80;99.90;;;;;;5093490;28;20433;-66
2021/03/19 02:39:24;;;;;;;26.70;16.37;;;0.90;99.90;;;;;;5095745;28;20429;-63
2021/03/19 02:41:52;;;;;;;25.60;17.00;;;0.80;99.90;;;;;;5097291;28;20788;-64
2021/03/19 02:44:19;;;;;;;22.83;16.20;;;0.80;99.90;;;;;;5098513;28;20433;-64
2021/03/19 02:46:48;;;;;;;33.50;21.20;;;0.80;99.90;;;;;;5097529;28;20428;-65
2021/03/19 02:49:18;;;;;;;22.83;16.20;;;0.70;99.90;;;;;;5097419;28;20804;-63
2021/03/19 02:51:45;;;;;;;27.70;17.37;;;0.70;99.90;;;;;;5097293;28;21008;-64
2021/03/19 02:54:13;;;;;;;26.00;17.50;;;0.80;99.90;;;;;;5097102;28;20432;-67
2021/03/19 02:56:40;;;;;;;24.40;16.10;;;0.80;99.90;;;;;;5096648;28;20429;-63
2021/03/19 02:59:10;;;;;;;25.53;18.60;;;0.80;99.90;;;;;;5096897;28;20482;-62
2021/03/19 03:01:42;;;;;;;27.70;16.63;;;0.80;99.90;;;;;;5096722;28;20428;-63
2021/03/19 03:04:11;;;;;;;26.20;17.70;;;0.90;99.90;;;;;;5078780;28;20528;-63
2021/03/19 03:06:44;;;;;;;23.40;15.57;;;0.80;99.90;;;;;;5096525;28;20430;-66
2021/03/19 03:09:14;;;;;;;23.90;16.60;;;0.80;99.90;;;;;;5096800;28;20425;-63
2021/03/19 03:11:43;;;;;;;23.63;16.47;;;0.80;99.90;;;;;;5096798;28;20519;-63
2021/03/19 03:14:14;;;;;;;24.17;16.80;;;0.90;99.90;;;;;;5097503;28;20441;-66
2021/03/19 03:16:48;;;;;;;23.27;15.70;;;0.90;99.90;;;;;;5096840;28;20428;-63
2021/03/19 03:19:20;;;;;;;23.37;17.07;;;0.90;99.90;;;;;;5097092;28;20429;-63
2021/03/19 03:21:49;;;;;;;30.23;17.57;;;0.90;99.90;;;;;;5096983;28;20483;-64
2021/03/19 03:24:26;;;;;;;25.80;16.40;;;1.00;99.90;;;;;;5097345;28;20433;-63
2021/03/19 03:26:54;;;;;;;26.30;17.40;;;1.00;99.90;;;;;;5097476;28;20939;-63
2021/03/19 03:29:24;;;;;;;27.37;17.80;;;1.00;99.90;;;;;;5097632;28;20425;-63
2021/03/19 03:31:52;;;;;;;28.30;17.27;;;1.00;99.90;;;;;;5096821;28;20436;-65
2021/03/19 03:34:23;;;;;;;29.40;17.33;;;1.00;99.90;;;;;;5096702;28;20460;-64
2021/03/19 03:36:52;;;;;;;28.67;18.50;;;1.00;99.90;;;;;;5096742;28;20425;-64
2021/03/19 03:39:24;;;;;;;29.63;17.30;;;0.90;99.90;;;;;;5097204;28;20823;-63
2021/03/19 03:41:52;;;;;;;27.43;17.37;;;0.90;99.90;;;;;;5096211;28;20543;-63
2021/03/19 03:44:20;;;;;;;21.67;15.60;;;0.90;99.90;;;;;;5094749;28;20429;-63
2021/03/19 03:46:49;;;;;;;26.93;16.40;;;1.00;99.90;;;;;;5096211;28;20467;-65
2021/03/19 03:49:21;;;;;;;22.10;16.10;;;0.90;99.90;;;;;;5096173;28;20516;-63
2021/03/19 03:51:50;;;;;;;26.50;17.10;;;0.90;99.90;;;;;;5096833;28;20428;-63
2021/03/19 03:54:18;;;;;;;25.67;17.13;;;0.90;99.90;;;;;;5096572;28;20429;-63
2021/03/19 03:56:48;;;;;;;24.30;16.87;;;0.90;99.90;;;;;;5078790;28;20424;-63
2021/03/19 03:59:16;;;;;;;24.10;16.33;;;0.90;99.90;;;;;;5077427;28;20421;-63
2021/03/19 04:01:44;;;;;;;26.67;17.50;;;0.90;99.90;;;;;;5095387;28;20421;-64
2021/03/19 04:04:15;;;;;;;27.97;18.23;;;1.00;99.90;;;;;;5095912;28;20487;-66
2021/03/19 04:06:43;;;;;;;28.63;16.83;;;1.00;99.90;;;;;;5095689;28;20429;-63
2021/03/19 04:09:11;;;;;;;24.57;17.63;;;1.00;99.90;;;;;;5095309;28;20442;-63
2021/03/19 04:11:39;;;;;;;25.27;16.70;;;1.00;99.90;;;;;;5077287;28;20438;-64
2021/03/19 04:14:07;;;;;;;27.63;18.43;;;1.00;99.90;;;;;;5095741;28;20463;-66
2021/03/19 04:16:35;;;;;;;28.97;16.80;;;1.00;99.90;;;;;;5095064;28;20437;-63
2021/03/19 04:19:03;;;;;;;25.67;16.77;;;1.00;99.90;;;;;;5077133;28;20433;-63
2021/03/19 04:21:30;;;;;;;21.80;15.70;;;1.00;99.90;;;;;;5077016;28;20429;-63
2021/03/19 04:23:58;;;;;;;25.53;17.07;;;1.00;99.90;;;;;;5095236;28;20522;-63
2021/03/19 04:26:31;;;;;;;23.07;15.67;;;1.00;99.90;;;;;;5095429;28;20478;-63
2021/03/19 04:28:59;;;;;;;33.93;20.27;;;1.10;99.90;;;;;;5094898;28;20966;-63
2021/03/19 04:31:28;;;;;;;26.40;15.97;;;1.10;99.90;;;;;;5095277;28;20439;-63
2021/03/19 04:33:56;;;;;;;32.07;20.50;;;1.00;99.90;;;;;;5095299;28;20449;-63
2021/03/19 04:36:41;;;;;;;26.87;17.97;;;1.10;99.90;;;;;;5076786;28;20814;-64
2021/03/19 04:39:13;;;;;;;28.20;18.57;;;1.00;99.90;;;;;;5094645;28;20834;-63
2021/03/19 04:41:44;;;;;;;32.40;19.90;;;1.00;99.90;;;;;;5094845;28;20437;-63
2021/03/19 04:44:13;;;;;;;25.17;16.20;;;1.00;99.90;;;;;;5076458;28;20472;-64
2021/03/19 04:46:41;;;;;;;31.37;18.40;;;0.90;99.90;;;;;;5094334;28;20444;-66
2021/03/19 04:49:09;;;;;;;33.73;20.17;;;0.90;99.90;;;;;;5094894;28;20437;-63
2021/03/19 04:51:40;;;;;;;29.63;19.10;;;0.90;99.90;;;;;;5094610;28;20475;-63
2021/03/19 04:54:08;;;;;;;28.40;18.27;;;0.90;99.90;;;;;;5095247;28;20445;-63
2021/03/19 04:56:35;;;;;;;27.90;18.27;;;0.80;99.90;;;;;;5095026;28;20834;-67
2021/03/19 04:59:03;;;;;;;32.00;19.60;;;0.80;99.90;;;;;;5095107;28;20482;-63
2021/03/19 05:01:32;;;;;;;24.70;18.50;;;0.80;99.90;;;;;;5092485;28;20433;-62
2021/03/19 05:04:00;;;;;;;33.70;19.00;;;0.80;99.90;;;;;;5094669;28;20452;-63
2021/03/19 05:06:28;;;;;;;27.00;18.10;;;0.80;99.90;;;;;;5094694;28;20432;-63
2021/03/19 05:08:55;;;;;;;31.30;18.17;;;0.80;99.90;;;;;;5095106;28;20954;-63
2021/03/19 05:11:23;;;;;;;29.80;20.00;;;0.80;99.90;;;;;;5094242;28;20487;-63
2021/03/19 05:13:51;;;;;;;33.53;20.07;;;0.90;99.90;;;;;;5094851;28;20455;-64
2021/03/19 05:16:19;;;;;;;37.30;17.80;;;0.90;99.90;;;;;;5094464;28;20455;-64
2021/03/19 05:18:48;;;;;;;32.83;20.50;;;0.90;99.90;;;;;;5094254;28;20433;-62
2021/03/19 05:21:16;;;;;;;36.60;21.47;;;0.90;99.90;;;;;;5094338;28;20436;-69
2021/03/19 05:23:53;;;;;;;30.10;19.20;;;0.90;99.90;;;;;;5093700;28;20550;-63
2021/03/19 05:26:22;;;;;;;30.47;19.43;;;1.00;99.90;;;;;;5094195;28;20463;-63
2021/03/19 05:28:51;;;;;;;26.80;19.80;;;1.00;99.90;;;;;;5093850;28;20425;-63
2021/03/19 05:31:19;;;;;;;32.30;20.03;;;1.00;99.90;;;;;;5093862;28;20951;-63
2021/03/19 05:33:49;;;;;;;34.40;20.60;;;1.00;99.90;;;;;;5094781;28;20436;-67
2021/03/19 05:36:21;;;;;;;38.47;21.50;;;1.10;99.90;;;;;;5059271;28;20517;-63
2021/03/19 05:38:50;;;;;;;37.23;20.90;;;1.10;99.90;;;;;;5075570;28;20429;-63
2021/03/19 05:41:20;;;;;;;35.13;20.50;;;1.20;99.90;;;;;;5093563;28;20936;-67
2021/03/19 05:43:50;;;;;;;34.20;19.90;;;1.10;99.90;;;;;;5093960;28;20471;-63
2021/03/19 05:46:21;;;;;;;33.70;21.13;;;1.10;99.90;;;;;;5093778;28;20440;-63
2021/03/19 05:48:56;;;;;;;33.57;20.97;;;1.10;99.90;;;;;;5093763;28;20938;-66
2021/03/19 05:51:36;;;;;;;35.70;20.87;;;1.10;99.90;;;;;;5093721;28;20432;-66
2021/03/19 05:54:18;;;;;;;36.30;22.27;;;1.10;99.90;;;;;;5093561;28;20456;-64
2021/03/19 05:56:47;;;;;;;37.43;21.23;;;1.20;99.90;;;;;;5075642;28;20428;-65
2021/03/19 05:59:14;;;;;;;38.97;20.43;;;1.10;99.90;;;;;;5093424;28;20811;-63
2021/03/19 06:01:42;;;;;;;34.00;21.10;;;1.10;99.90;;;;;;5093844;28;20425;-63
2021/03/19 06:04:20;;;;;;;33.20;20.83;;;1.00;99.90;;;;;;5075221;28;20568;-63
2021/03/19 06:06:51;;;;;;;39.80;19.43;;;1.10;99.90;;;;;;5093894;28;20891;-63
2021/03/19 06:09:25;;;;;;;32.20;19.47;;;1.10;99.90;;;;;;5093251;28;20456;-63
2021/03/19 06:11:55;;;;;;;30.50;17.50;;;1.10;99.90;;;;;;5093260;28;20472;-64
2021/03/19 06:14:25;;;;;;;30.07;18.20;;;1.10;99.90;;;;;;5093641;28;20474;-67
2021/03/19 06:16:59;;;;;;;30.77;20.77;;;1.20;99.90;;;;;;5093585;28;20433;-64
2021/03/19 06:19:32;;;;;;;27.63;17.97;;;1.10;99.90;;;;;;5093782;28;20504;-63
2021/03/19 06:22:27;;;;;;;37.03;20.97;;;1.10;99.90;;;;;;5093539;28;20427;-63
2021/03/19 06:25:39;;;;;;;32.40;21.07;;;1.20;99.90;;;;;;5093888;28;20444;-66
2021/03/19 06:28:23;;;;;;;37.77;19.90;;;1.20;99.90;;;;;;5093478;28;20428;-63
2021/03/19 06:30:51;;;;;;;42.10;21.13;;;1.20;99.90;;;;;;5093730;28;20441;-64
2021/03/19 06:33:26;;;;;;;34.57;20.40;;;1.20;99.90;;;;;;5093865;28;20442;-63
2021/03/19 06:36:12;;;;;;;32.93;19.60;;;1.20;99.90;;;;;;5093755;28;20570;-64
2021/03/19 06:38:48;;;;;;;39.80;21.13;;;1.20;99.90;;;;;;5076138;28;20787;-64
2021/03/19 06:41:27;;;;;;;36.00;21.97;;;1.20;99.90;;;;;;5093534;28;20469;-66
2021/03/19 06:44:14;;;;;;;38.23;20.80;;;1.30;99.90;;;;;;5094740;28;20467;-63
2021/03/19 06:46:45;;;;;;;42.13;23.50;;;1.30;99.90;;;;;;5095239;28;20438;-64
2021/03/19 06:49:14;;;;;;;36.03;21.33;;;1.30;99.90;;;;;;5096583;28;21046;-64
2021/03/19 06:51:44;;;;;;;43.30;24.57;;;1.40;99.90;;;;;;5095999;28;20437;-63
2021/03/19 06:54:16;;;;;;;33.43;20.00;;;1.40;99.90;;;;;;5095466;28;20532;-65
2021/03/19 06:57:02;;;;;;;36.33;22.20;;;1.50;99.90;;;;;;5096578;28;20963;-64
2021/03/19 06:59:40;;;;;;;36.43;22.13;;;1.60;99.90;;;;;;5096417;28;20429;-65
2021/03/19 07:02:41;;;;;;;33.10;19.40;;;1.70;99.90;;;;;;5098241;28;20440;-64
2021/03/19 07:05:38;;;;;;;36.07;20.90;;;1.80;99.90;;;;;;5096237;28;20436;-64
2021/03/19 07:08:23;;;;;;;36.40;20.67;;;1.80;99.90;;;;;;5078277;28;20465;-63
2021/03/19 07:11:03;;;;;;;31.70;20.23;;;1.70;99.90;;;;;;5108494;28;20458;-64
2021/03/19 07:13:46;;;;;;;29.07;18.57;;;1.90;99.90;;;;;;5111745;28;20471;-64
2021/03/19 07:16:16;;;;;;;27.00;18.27;;;2.10;99.90;;;;;;5092660;28;20429;-64
2021/03/19 07:19:15;;;;;;;29.30;17.43;;;2.40;99.90;;;;;;5109362;28;20445;-65
2021/03/19 07:21:58;;;;;;;26.23;16.63;;;2.50;99.90;;;;;;5086848;28;20523;-64
2021/03/19 07:24:49;;;;;;;25.20;14.50;;;2.60;99.90;;;;;;5108400;28;20524;-64
2021/03/19 07:27:36;;;;;;;18.30;13.17;;;2.60;99.90;;;;;;5116847;28;20434;-64
2021/03/19 07:30:15;;;;;;;20.30;14.03;;;2.40;99.90;;;;;;5116999;28;20436;-64
2021/03/19 07:33:21;;;;;;;20.77;13.60;;;2.40;99.90;;;;;;5118340;28;20446;-63
2021/03/19 07:36:08;;;;;;;17.70;13.43;;;2.30;99.90;;;;;;5117962;28;20460;-63
2021/03/19 07:39:10;;;;;;;17.07;11.70;;;2.10;99.90;;;;;;5118463;28;20436;-63
2021/03/19 07:42:18;;;;;;;18.13;11.10;;;2.10;99.90;;;;;;5044729;28;20451;-65
2021/03/19 07:44:54;;;;;;;16.40;10.33;;;2.30;99.90;;;;;;5118322;28;20505;-64
2021/03/19 07:47:46;;;;;;;13.80;9.23;;;2.40;99.90;;;;;;5117608;28;20424;-63
2021/03/19 07:50:30;;;;;;;15.03;10.17;;;2.20;99.90;;;;;;5117804;28;20451;-63
2021/03/19 07:53:23;;;;;;;11.20;8.50;;;2.30;99.90;;;;;;5117732;28;20428;-64
2021/03/19 07:56:16;;;;;;;14.47;9.53;;;2.30;99.90;;;;;;5118526;28;20428;-64
2021/03/19 07:59:05;;;;;;;11.70;10.03;;;2.40;99.90;;;;;;5117764;28;20442;-64
2021/03/19 08:01:40;;;;;;;14.27;9.37;;;2.40;99.90;;;;;;5118450;28;20447;-65
2021/03/19 08:04:17;;;;;;;11.47;7.20;;;2.50;99.90;;;;;;5118488;28;20456;-63
2021/03/19 08:06:49;;;;;;;11.53;8.40;;;2.40;99.90;;;;;;5118781;28;20484;-64
2021/03/19 08:09:24;;;;;;;10.50;7.67;;;2.50;99.90;;;;;;5083087;28;20440;-64
2021/03/19 08:11:55;;;;;;;11.60;8.90;;;2.40;99.90;;;;;;5118227;28;20420;-64
2021/03/19 08:14:47;;;;;;;14.37;8.90;;;2.40;99.90;;;;;;5118146;28;20431;-65
2021/03/19 08:17:27;;;;;;;10.50;7.80;;;2.30;99.90;;;;;;5099261;28;20413;-64
2021/03/19 08:20:08;;;;;;;9.30;7.50;;;2.40;99.90;;;;;;5107078;28;20428;-64
2021/03/19 08:22:45;;;;;;;11.33;8.33;;;2.50;99.90;;;;;;5079257;28;20508;-64
2021/03/19 08:25:42;;;;;;;11.27;9.13;;;2.30;99.90;;;;;;5097537;28;20439;-63
2021/03/19 08:28:19;;;;;;;11.40;9.00;;;2.30;99.90;;;;;;5097197;28;20490;-63
2021/03/19 08:30:55;;;;;;;14.60;9.00;;;2.20;99.90;;;;;;5097290;28;20439;-63
2021/03/19 08:33:34;;;;;;;13.03;8.87;;;2.20;99.90;;;;;;5097938;28;20850;-62
2021/03/19 08:36:09;;;;;;;12.40;8.20;;;2.20;99.90;;;;;;5095989;28;20502;-65
2021/03/19 08:38:43;;;;;;;12.47;8.23;;;2.40;99.90;;;;;;5097259;28;20519;-63
2021/03/19 08:41:14;;;;;;;10.23;7.80;;;2.50;99.90;;;;;;5096643;28;20460;-63
2021/03/19 08:43:45;;;;;;;13.80;9.57;;;2.50;99.90;;;;;;5098031;28;20467;-63
2021/03/19 08:46:19;;;;;;;9.30;6.60;;;2.30;99.90;;;;;;5096726;28;20425;-62
2021/03/19 08:49:14;;;;;;;12.17;9.30;;;2.30;99.90;;;;;;5096740;28;20528;-63
2021/03/19 08:51:44;;;;;;;11.80;8.67;;;2.30;99.90;;;;;;5096141;28;20440;-66
2021/03/19 08:54:22;;;;;;;10.30;8.00;;;2.30;99.90;;;;;;5096626;28;20908;-64
2021/03/19 08:57:33;;;;;;;10.60;7.67;;;2.40;99.90;;;;;;5094545;28;20429;-63
2021/03/19 09:00:01;;;;;;;12.07;8.43;;;2.30;99.90;;;;;;5087762;28;20440;-63
2021/03/19 09:02:46;;;;;;;12.20;9.67;;;2.30;99.90;;;;;;5075683;28;20485;-62
2021/03/19 09:05:24;;;;;;;13.10;7.93;;;2.50;99.90;;;;;;5058855;28;20435;-62
2021/03/19 09:08:26;;;;;;;10.67;6.90;;;2.40;99.90;;;;;;5076447;28;20441;-62
2021/03/19 09:11:11;;;;;;;12.53;8.67;;;2.40;99.90;;;;;;5076405;28;20452;-63
2021/03/19 09:14:06;;;;;;;12.90;7.67;;;2.40;99.90;;;;;;5057725;28;20870;-63
2021/03/19 09:16:49;;;;;;;11.93;7.07;;;2.60;99.90;;;;;;5087606;28;20464;-63
2021/03/19 09:19:43;;;;;;;12.00;7.17;;;2.70;99.90;;;;;;5097120;28;20456;-63
2021/03/19 09:22:36;;;;;;;10.70;7.80;;;3.00;99.90;;;;;;5078806;28;20448;-64
2021/03/19 09:25:39;;;;;;;8.10;5.60;;;3.00;99.90;;;;;;5095780;28;20448;-62
2021/03/19 09:28:37;;;;;;;10.70;6.40;;;3.20;99.90;;;;;;5094759;28;20424;-63
2021/03/19 09:31:29;;;;;;;11.90;7.40;;;3.30;99.90;;;;;;5094576;28;20468;-63
2021/03/19 09:34:05;;;;;;;11.17;7.10;;;3.50;99.90;;;;;;5095717;28;20523;-64
2021/03/19 09:37:09;;;;;;;10.60;7.70;;;3.30;99.90;;;;;;5095369;28;20481;-63
2021/03/19 09:40:09;;;;;;;11.30;6.93;;;3.20;99.90;;;;;;5096517;28;20427;-63
2021/03/19 09:42:55;;;;;;;12.07;7.40;;;4.30;99.90;;;;;;5095836;28;20847;-63
2021/03/19 09:45:48;;;;;;;10.23;6.87;;;4.50;99.90;;;;;;5094838;28;20445;-64
2021/03/19 09:48:33;;;;;;;9.37;6.77;;;4.60;99.90;;;;;;5094745;28;20459;-63
2021/03/19 09:51:38;;;;;;;10.17;7.07;;;5.80;99.90;;;;;;5094972;28;20403;-63
2021/03/19 09:54:32;;;;;;;11.97;7.40;;;5.20;99.90;;;;;;5077512;28;20467;-63
2021/03/19 09:57:11;;;;;;;9.43;7.63;;;5.30;99.90;;;;;;5095565;28;20991;-64
2021/03/19 09:59:43;;;;;;;10.83;7.37;;;4.80;99.90;;;;;;5100101;28;20399;-64
2021/03/19 10:02:27;;;;;;;9.00;6.20;;;4.80;99.90;;;;;;5103504;28;20540;-64
2021/03/19 10:05:08;;;;;;;10.83;7.73;;;4.60;99.90;;;;;;5100545;28;20491;-64
2021/03/19 10:07:36;;;;;;;9.33;7.57;;;4.70;99.90;;;;;;5098327;28;20415;-64
2021/03/19 10:10:20;;;;;;;7.47;6.33;;;4.40;99.90;;;;;;5101621;28;20507;-66
2021/03/19 10:12:50;;;;;;;8.10;5.87;;;4.10;99.90;;;;;;5079177;28;20425;-63
2021/03/19 10:15:20;;;;;;;14.07;7.77;;;4.40;99.90;;;;;;5096513;28;21018;-63
2021/03/19 10:17:53;;;;;;;8.17;6.67;;;4.60;99.90;;;;;;5099358;28;20448;-65
2021/03/19 10:20:26;;;;;;;8.40;6.57;;;4.80;99.90;;;;;;5078813;28;20432;-63
2021/03/19 10:23:00;;;;;;;11.03;7.30;;;5.00;99.90;;;;;;5096052;28;20443;-63
2021/03/19 10:25:32;;;;;;;10.40;7.57;;;5.20;99.90;;;;;;5097603;28;20830;-63
2021/03/19 10:28:09;;;;;;;12.63;8.10;;;4.90;99.90;;;;;;5098588;28;20454;-65
2021/03/19 10:30:43;;;;;;;9.40;7.17;;;5.10;99.90;;;;;;5100738;28;20530;-65
2021/03/19 10:33:17;;;;;;;9.20;6.23;;;5.50;99.90;;;;;;5096367;28;20495;-63
2021/03/19 10:35:52;;;;;;;10.40;6.20;;;6.10;99.90;;;;;;5095662;28;20574;-63
2021/03/19 10:38:28;;;;;;;11.50;6.63;;;6.80;99.90;;;;;;5094942;28;20920;-65
2021/03/19 10:41:02;;;;;;;9.70;7.07;;;7.40;99.90;;;;;;5095916;28;20508;-63
2021/03/19 10:43:41;;;;;;;8.70;6.67;;;7.80;99.90;;;;;;5095575;28;20434;-63
2021/03/19 10:46:17;;;;;;;6.93;5.90;;;7.50;99.10;;;;;;5077080;28;20989;-64
2021/03/19 10:48:51;;;;;;;7.23;5.43;;;7.20;99.80;;;;;;5077905;28;20432;-66
2021/03/19 10:51:37;;;;;;;7.30;5.17;;;7.10;97.70;;;;;;5095865;28;20440;-65
2021/03/19 10:54:14;;;;;;;5.37;4.30;;;7.50;97.70;;;;;;5077390;28;20946;-63
2021/03/19 10:56:48;;;;;;;6.77;5.20;;;6.90;97.90;;;;;;5095929;28;20450;-64
2021/03/19 10:59:29;;;;;;;7.30;4.93;;;6.30;97.70;;;;;;5095122;28;20448;-63
2021/03/19 11:02:15;;;;;;;5.13;4.57;;;6.30;98.10;;;;;;5097709;28;20454;-63
2021/03/19 11:04:44;;;;;;;6.47;5.33;;;6.50;98.20;;;;;;5079257;28;20540;-63
2021/03/19 11:07:35;;;;;;;5.20;4.70;;;6.90;96.70;;;;;;5098972;28;20431;-66
2021/03/19 11:10:24;;;;;;;7.43;5.20;;;6.40;96.70;;;;;;5098377;28;20440;-63
2021/03/19 11:13:21;;;;;;;11.50;7.10;;;7.00;98.80;;;;;;5097686;28;20410;-62
2021/03/19 11:15:51;;;;;;;8.93;5.90;;;6.20;99.90;;;;;;5095665;28;20939;-62
2021/03/19 11:18:26;;;;;;;7.17;5.53;;;5.80;99.90;;;;;;5079546;28;20952;-62
2021/03/19 11:20:58;;;;;;;10.47;5.20;;;5.00;99.90;;;;;;5063646;28;20445;-64
2021/03/19 11:23:33;;;;;;;7.70;5.27;;;4.30;99.90;;;;;;5079158;28;20550;-63
2021/03/19 11:26:19;;;;;;;6.67;5.13;;;4.40;99.90;;;;;;5097073;28;20415;-63
2021/03/19 11:29:07;;;;;;;8.27;6.60;;;4.10;99.90;;;;;;5097559;28;20440;-62
2021/03/19 11:31:53;;;;;;;11.10;6.37;;;3.70;99.90;;;;;;5096472;28;20472;-64
2021/03/19 11:34:30;;;;;;;9.17;6.67;;;3.90;99.90;;;;;;5079157;28;20441;-64
2021/03/19 11:37:01;;;;;;;9.87;6.30;;;4.20;99.90;;;;;;5097570;28;20424;-63
2021/03/19 11:39:42;;;;;;;13.53;7.97;;;4.30;99.90;;;;;;5098067;28;20445;-63
2021/03/19 11:42:12;;;;;;;17.27;6.97;;;4.70;99.90;;;;;;5097554;28;20524;-64
2021/03/19 11:44:43;;;;;;;9.30;7.70;;;5.50;99.90;;;;;;5080165;28;20440;-62
2021/03/19 11:47:17;;;;;;;9.53;7.13;;;6.10;99.90;;;;;;5078015;28;20496;-62
2021/03/19 11:49:47;;;;;;;10.00;7.47;;;6.80;99.90;;;;;;5097608;28;20426;-63
2021/03/19 11:52:16;;;;;;;11.77;7.50;;;7.70;99.90;;;;;;5097514;28;20402;-63
2021/03/19 11:54:47;;;;;;;8.80;7.30;;;7.30;99.90;;;;;;5079607;28;20466;-63
2021/03/19 11:57:15;;;;;;;8.27;6.73;;;7.10;99.90;;;;;;5097606;28;20422;-66
2021/03/19 11:59:45;;;;;;;10.60;8.20;;;6.90;99.90;;;;;;5097411;28;20511;-63
2021/03/19 12:02:25;;;;;;;7.93;5.90;;;6.50;99.10;;;;;;5096866;28;20457;-65
2021/03/19 12:04:54;;;;;;;7.00;5.50;;;5.90;99.90;;;;;;5078874;28;20471;-66
2021/03/19 12:07:21;;;;;;;7.00;5.80;;;5.70;99.20;;;;;;5097588;28;20406;-63
2021/03/19 12:09:51;;;;;;;8.23;5.80;;;5.50;99.80;;;;;;5096303;28;20463;-63
2021/03/19 12:12:25;;;;;;;5.60;3.97;;;6.30;99.80;;;;;;5097414;28;20753;-66
2021/03/19 12:14:55;;;;;;;6.30;4.73;;;7.60;94.10;;;;;;5096968;28;20422;-64
2021/03/19 12:17:23;;;;;;;6.87;6.00;;;8.10;94.20;;;;;;5095278;28;20956;-63
2021/03/19 12:19:52;;;;;;;8.20;5.73;;;7.80;96.00;;;;;;5097663;28;20950;-63
2021/03/19 12:22:20;;;;;;;9.73;6.80;;;7.20;96.00;;;;;;5078313;28;20419;-67
2021/03/19 12:24:48;;;;;;;8.47;6.70;;;6.70;97.80;;;;;;5078771;28;20491;-68
2021/03/19 12:27:20;;;;;;;7.30;5.53;;;6.00;99.90;;;;;;5078675;28;20414;-63
2021/03/19 12:29:48;;;;;;;8.33;5.57;;;5.70;99.90;;;;;;5097300;28;20417;-63
2021/03/19 12:32:19;;;;;;;7.63;6.07;;;4.70;99.90;;;;;;5095808;28;20938;-63
2021/03/19 12:34:47;;;;;;;7.60;6.03;;;4.60;99.90;;;;;;5097038;28;21045;-63
2021/03/19 12:37:16;;;;;;;8.00;6.23;;;4.60;99.90;;;;;;5096753;28;20466;-63
2021/03/19 12:39:45;;;;;;;6.90;6.03;;;4.50;99.90;;;;;;5097473;28;20407;-62
2021/03/19 12:42:12;;;;;;;7.73;6.27;;;4.50;99.90;;;;;;5098608;28;20424;-62
2021/03/19 12:44:40;;;;;;;5.87;4.77;;;4.60;99.90;;;;;;5096063;28;20951;-63
2021/03/19 12:47:08;;;;;;;6.77;5.10;;;4.70;99.90;;;;;;5095613;28;20485;-63
2021/03/19 12:49:36;;;;;;;5.30;4.57;;;4.80;99.90;;;;;;5097358;28;20425;-63
2021/03/19 12:52:04;;;;;;;8.13;4.67;;;5.00;99.90;;;;;;5097227;28;20403;-63
2021/03/19 12:54:32;;;;;;;5.40;4.87;;;5.10;99.70;;;;;;5096752;28;20470;-63
2021/03/19 12:56:59;;;;;;;7.87;4.70;;;5.20;99.00;;;;;;5097049;28;20429;-62
2021/03/19 12:59:27;;;;;;;6.13;4.67;;;5.40;99.50;;;;;;5097274;28;20407;-63
2021/03/19 13:01:57;;;;;;;6.07;4.20;;;5.60;99.50;;;;;;5095381;28;20968;-62
2021/03/19 13:04:27;;;;;;;5.47;4.70;;;5.80;98.70;;;;;;5096865;28;20840;-62
2021/03/19 13:06:56;;;;;;;5.07;4.57;;;5.90;97.80;;;;;;5096885;28;20453;-63
2021/03/19 13:09:23;;;;;;;5.60;5.10;;;5.60;98.10;;;;;;5096777;28;20427;-63
2021/03/19 13:11:51;;;;;;;5.83;4.90;;;5.40;98.90;;;;;;5096555;28;20429;-62
2021/03/19 13:14:20;;;;;;;4.70;4.03;;;5.20;99.40;;;;;;5096289;28;20528;-63
2021/03/19 13:16:50;;;;;;;4.70;4.30;;;5.00;99.90;;;;;;5095807;28;20953;-62
2021/03/19 13:19:19;;;;;;;4.30;3.90;;;4.80;99.60;;;;;;5096605;28;20627;-62
2021/03/19 13:21:47;;;;;;;5.73;3.87;;;4.80;99.90;;;;;;5061915;28;20448;-63
2021/03/19 13:27:11;;;;;;;3.63;3.20;;;4.60;99.90;;;;;;5097781;28;20432;-63
2021/03/19 13:29:39;;;;;;;4.23;3.40;;;4.70;99.90;;;;;;5080255;28;20881;-62
2021/03/19 13:32:07;;;;;;;4.87;3.60;;;4.70;99.90;;;;;;5097438;28;20556;-62
2021/03/19 13:34:35;;;;;;;3.80;3.40;;;5.00;99.90;;;;;;5099837;28;20429;-62